DAUO/ELU METAR and TAF weather

Enter ICAO airport designator
Station Type Date Time Source
DAUO METAR 2022/06/28 09:00 UTC NOAA

DAUO 280900Z 18006KT 4000 HZ FEW040 40/03 Q1009


Station Type Date Time Source
DAUO Decoded METAR 2022/06/28 09:00 UTC NOAA

El Oued, Algeria (DAUO) 33-30N 006-07E 63M
Jun 28, 2022 - 05:00 AM EDT / 2022.06.28 0900 UTC
Wind: from the S (180 degrees) at 7 MPH (6 KT):0
Visibility: 2 mile(s):0
Sky conditions: mostly clear
Weather: haze
Temperature: 104 F (40 C)
Dew Point: 37 F (3 C)
Relative Humidity: 10%
Pressure (altimeter): 29.80 in. Hg (1009 hPa)
ob: DAUO 280900Z 18006KT 4000 HZ FEW040 40/03 Q1009
cycle: 9

Station Type Date Time Source
DAUO TAF 2021/07/18 12:00 UTC NOAA

TAF DAUO 181100Z 1812/1821 10010KT CAVOK

Example: see airport list